createdAt,value
2018-08-03T00:01:49.298Z,71.00
2018-08-03T00:07:18.764Z,70.70
2018-08-03T00:12:48.076Z,70.70
2018-08-03T00:18:17.478Z,70.80
2018-08-03T00:23:47.827Z,70.50
2018-08-03T00:29:17.143Z,70.20
2018-08-03T00:34:47.080Z,70.10
2018-08-03T00:40:18.619Z,70.30
2018-08-03T00:45:49.394Z,70.30
2018-08-03T00:51:18.810Z,70.60
2018-08-03T00:56:48.164Z,70.80
2018-08-03T01:02:17.880Z,71.00
2018-08-03T01:07:47.163Z,71.20
2018-08-03T01:13:16.560Z,71.20
2018-08-03T01:18:45.904Z,71.20
2018-08-03T01:24:15.267Z,71.30
2018-08-03T01:29:44.588Z,71.50
2018-08-03T01:35:14.056Z,71.50
2018-08-03T01:40:43.341Z,71.60
2018-08-03T01:46:12.662Z,71.80
2018-08-03T01:51:43.994Z,71.90
2018-08-03T01:57:13.245Z,72.20
2018-08-03T02:02:42.512Z,72.40
2018-08-03T02:08:11.792Z,72.60
2018-08-03T02:13:41.082Z,72.80
2018-08-03T02:19:10.402Z,72.80
2018-08-03T02:24:39.789Z,73.00
2018-08-03T02:30:09.102Z,73.00
2018-08-03T02:35:39.414Z,73.00
2018-08-03T02:41:08.716Z,73.20
2018-08-03T02:46:38.109Z,73.30
2018-08-03T02:52:07.418Z,73.50
2018-08-03T02:57:36.693Z,73.60
2018-08-03T03:03:06.791Z,73.60
2018-08-03T03:08:36.079Z,73.90
2018-08-03T03:14:05.760Z,74.20
2018-08-03T03:19:35.253Z,74.50
2018-08-03T03:25:04.570Z,74.80
2018-08-03T03:30:33.963Z,75.50
2018-08-03T03:36:03.334Z,75.40
2018-08-03T03:41:32.656Z,76.40
2018-08-03T03:47:01.904Z,76.10
2018-08-03T03:52:32.218Z,76.40
2018-08-03T03:58:01.520Z,76.70
2018-08-03T04:09:01.012Z,77.10
2018-08-03T04:14:30.324Z,77.30
2018-08-03T04:19:59.644Z,77.40
2018-08-03T04:25:28.928Z,77.50
2018-08-03T04:30:58.271Z,77.60
2018-08-03T04:36:27.604Z,77.70
2018-08-03T04:41:56.895Z,77.70
2018-08-03T04:47:26.189Z,77.60
2018-08-03T04:52:55.580Z,77.70
2018-08-03T04:58:24.901Z,77.50
2018-08-03T05:03:54.216Z,77.40
2018-08-03T05:09:23.597Z,77.50
2018-08-03T05:14:53.125Z,77.70
2018-08-03T05:20:22.543Z,77.30
2018-08-03T05:25:51.896Z,77.20
2018-08-03T05:31:21.443Z,77.10
2018-08-03T05:36:53.179Z,76.80
2018-08-03T05:42:22.542Z,76.40
2018-08-03T05:47:51.889Z,76.20
2018-08-03T05:53:21.398Z,76.00
2018-08-03T05:58:50.797Z,76.20
2018-08-03T06:04:20.157Z,75.30
2018-08-03T06:09:49.421Z,74.80
2018-08-03T06:15:18.765Z,74.50
2018-08-03T06:20:48.205Z,73.90
2018-08-03T06:26:17.469Z,73.70
2018-08-03T06:31:46.787Z,72.70
2018-08-03T06:37:16.027Z,72.60
2018-08-03T06:42:45.350Z,72.70
2018-08-03T06:48:14.622Z,71.90
2018-08-03T06:53:44.262Z,71.20
2018-08-03T06:59:13.516Z,70.60
2018-08-03T07:04:42.708Z,70.20
2018-08-03T07:10:12.012Z,69.50
2018-08-03T07:15:41.233Z,68.80
2018-08-03T07:21:11.758Z,68.50
2018-08-03T07:32:11.072Z,68.30
2018-08-03T07:37:40.336Z,67.80
2018-08-03T07:43:09.858Z,67.50
2018-08-03T07:48:39.169Z,66.60
2018-08-03T07:54:08.428Z,66.40
2018-08-03T07:59:37.811Z,65.30
2018-08-03T08:05:07.389Z,64.90
2018-08-03T08:10:36.607Z,64.50
2018-08-03T08:16:05.887Z,64.10
2018-08-03T08:21:35.666Z,63.60
2018-08-03T08:27:05.009Z,63.20
2018-08-03T08:32:34.304Z,63.00
2018-08-03T08:38:03.603Z,61.40
2018-08-03T08:43:33.224Z,61.30
2018-08-03T08:49:03.004Z,61.40
2018-08-03T08:54:32.300Z,60.90
2018-08-03T09:00:01.515Z,61.00
2018-08-03T09:05:30.901Z,60.30
2018-08-03T09:11:00.717Z,59.90
2018-08-03T09:16:30.134Z,59.80
2018-08-03T09:21:59.495Z,59.30
2018-08-03T09:27:28.725Z,59.40
2018-08-03T09:32:57.973Z,58.90
2018-08-03T09:38:27.225Z,58.80
2018-08-03T09:43:56.523Z,58.10
2018-08-03T09:49:25.907Z,57.40
2018-08-03T09:54:55.239Z,57.60
2018-08-03T10:00:29.639Z,56.60
2018-08-03T10:05:59.083Z,56.30
2018-08-03T10:11:28.418Z,55.10
2018-08-03T10:16:58.291Z,55.40
2018-08-03T10:22:28.383Z,55.10
2018-08-03T10:27:57.781Z,54.20
2018-08-03T10:33:27.099Z,53.40
2018-08-03T10:38:56.464Z,53.10
2018-08-03T10:44:25.756Z,54.00
2018-08-03T10:49:55.238Z,53.70
2018-08-03T10:55:24.528Z,52.50
2018-08-03T11:00:53.794Z,52.80
2018-08-03T11:06:23.170Z,52.20
2018-08-03T11:11:52.585Z,51.50
2018-08-03T11:17:22.040Z,51.40
2018-08-03T11:22:51.479Z,51.00
2018-08-03T11:28:20.835Z,50.30
2018-08-03T11:33:50.151Z,50.00
2018-08-03T11:39:19.480Z,50.30
2018-08-03T11:44:48.784Z,49.20
2018-08-03T11:50:18.108Z,49.00
2018-08-03T11:55:47.455Z,50.40
2018-08-03T12:01:16.656Z,50.20
2018-08-03T12:12:15.796Z,49.10
2018-08-03T12:17:45.866Z,48.40
2018-08-03T12:23:15.222Z,48.80
2018-08-03T12:28:44.398Z,47.40
2018-08-03T12:34:13.689Z,46.10
2018-08-03T12:39:42.966Z,46.50
2018-08-03T12:45:12.253Z,47.70
2018-08-03T12:50:41.573Z,48.90
2018-08-03T12:56:10.828Z,48.50
2018-08-03T13:01:40.070Z,47.80
2018-08-03T13:07:09.292Z,47.30
2018-08-03T13:12:38.613Z,48.90
2018-08-03T13:18:07.861Z,47.90
2018-08-03T13:23:56.515Z,47.10
2018-08-03T13:29:25.966Z,47.00
2018-08-03T13:34:55.341Z,46.40
2018-08-03T13:40:24.735Z,44.90
2018-08-03T13:45:54.056Z,45.70
2018-08-03T13:51:23.486Z,44.60
2018-08-03T13:56:52.911Z,44.30
2018-08-03T14:02:24.624Z,44.30
2018-08-03T14:07:53.949Z,45.10
2018-08-03T14:13:26.314Z,44.20
2018-08-03T14:18:56.453Z,44.50
2018-08-03T14:24:25.861Z,45.30
2018-08-03T14:29:55.527Z,44.90
2018-08-03T14:35:25.894Z,44.90
2018-08-03T14:40:55.316Z,45.10
2018-08-03T14:46:24.731Z,44.20
2018-08-03T14:51:54.160Z,43.10
2018-08-03T14:57:23.540Z,40.40
2018-08-03T15:02:52.991Z,36.30
2018-08-03T15:08:23.482Z,34.30
2018-08-03T15:13:52.953Z,34.20
2018-08-03T15:19:22.369Z,36.90
2018-08-03T15:24:51.836Z,39.00
2018-08-03T15:30:21.175Z,39.10
2018-08-03T15:35:52.218Z,38.90
2018-08-03T15:41:21.570Z,39.90
2018-08-03T15:46:52.585Z,41.00
2018-08-03T15:52:22.841Z,41.90
2018-08-03T15:57:55.401Z,42.60
2018-08-03T16:03:25.034Z,43.30
2018-08-03T16:08:54.596Z,41.70
2018-08-03T16:14:24.023Z,41.70
2018-08-03T16:19:53.584Z,42.50
2018-08-03T16:25:22.989Z,42.60
2018-08-03T16:36:21.667Z,43.10
2018-08-03T16:41:51.287Z,43.30
2018-08-03T16:47:20.683Z,43.00
2018-08-03T16:52:50.113Z,43.10
2018-08-03T16:58:19.579Z,43.40
2018-08-03T17:03:49.692Z,43.60
2018-08-03T17:09:19.214Z,43.80
2018-08-03T17:14:50.659Z,43.70
2018-08-03T17:20:20.115Z,44.20
2018-08-03T17:25:49.457Z,44.40
2018-08-03T17:31:19.947Z,45.00
2018-08-03T17:36:50.344Z,45.10
2018-08-03T17:42:19.730Z,45.60
2018-08-03T17:47:49.000Z,45.90
2018-08-03T17:53:18.227Z,46.60
2018-08-03T17:58:48.749Z,46.80
2018-08-03T18:04:18.218Z,47.50
2018-08-03T18:09:47.531Z,47.60
2018-08-03T18:15:16.912Z,48.00
2018-08-03T18:26:16.454Z,48.70
2018-08-03T18:31:45.692Z,49.10
2018-08-03T18:37:14.896Z,49.50
2018-08-03T18:42:44.303Z,49.60
2018-08-03T18:48:13.581Z,50.30
2018-08-03T18:53:42.843Z,50.70
2018-08-03T18:59:12.163Z,50.90
2018-08-03T19:04:41.550Z,51.20
2018-08-03T19:10:11.021Z,52.50
2018-08-03T19:15:40.379Z,52.60
2018-08-03T19:21:09.652Z,52.90
2018-08-03T19:26:38.944Z,53.00
2018-08-03T19:32:08.245Z,53.50
2018-08-03T19:37:37.459Z,54.10
2018-08-03T19:43:06.879Z,54.80
2018-08-03T19:48:36.119Z,55.20
2018-08-03T19:54:05.435Z,55.30
2018-08-03T19:59:34.895Z,55.40
2018-08-03T20:05:04.296Z,55.70
2018-08-03T20:10:33.586Z,55.30
2018-08-03T20:16:02.961Z,55.20
2018-08-03T20:21:32.283Z,55.50
2018-08-03T20:27:01.589Z,56.00
2018-08-03T20:32:30.938Z,56.30
2018-08-03T20:38:00.229Z,56.90
2018-08-03T20:43:29.553Z,56.90
2018-08-03T20:48:58.981Z,57.30
2018-08-03T20:54:28.492Z,57.50
2018-08-03T20:59:57.818Z,58.00
2018-08-03T21:10:56.441Z,58.40
2018-08-03T21:16:25.818Z,58.80
2018-08-03T21:21:55.092Z,59.10
2018-08-03T21:27:24.539Z,59.40
2018-08-03T21:32:54.173Z,59.50
2018-08-03T21:38:23.908Z,59.40
2018-08-03T21:43:53.394Z,59.40
2018-08-03T21:49:22.736Z,59.40
2018-08-03T21:54:52.362Z,60.00
2018-08-03T22:00:22.952Z,60.30
2018-08-03T22:05:52.606Z,60.00
2018-08-03T22:11:21.968Z,60.10
2018-08-03T22:16:51.359Z,60.80
2018-08-03T22:22:20.868Z,61.20
2018-08-03T22:27:50.413Z,61.60
2018-08-03T22:33:20.041Z,61.70
2018-08-03T22:38:49.496Z,61.80
2018-08-03T22:44:18.860Z,62.30
2018-08-03T22:49:48.195Z,62.80
2018-08-03T23:00:46.740Z,63.10
2018-08-03T23:06:16.021Z,63.50
2018-08-03T23:11:45.283Z,63.90
2018-08-03T23:17:14.521Z,64.30
2018-08-03T23:22:43.826Z,64.50
2018-08-03T23:28:13.055Z,64.90
2018-08-03T23:33:42.333Z,65.20
2018-08-03T23:39:11.682Z,65.70
2018-08-03T23:44:40.902Z,65.90
2018-08-03T23:50:19.500Z,65.80
2018-08-03T23:55:48.856Z,66.20
